^^
Your Local Weather - Clay, NY Station Historical Data
Daily Summary for January 1, 2018 Units:  Metric    English   Both
« Previous Day
Next Day »
Daily Weekly Monthly Yearly Custom
  High: Low: Average:
Temperature: -9.7 °C -26 °C -15.7 °C
Dew Point: -12.4 °C -28.4 °C -19.1 °C
Humidity: 87% 58% 76%
Wind Speed: 9.7km/h 0km/h 2.9km/h
Wind Gust: 20.9km/h - -
Wind- - SW
Pressure: 1030 hPa 1023.9 hPa -
Precipitation: 0 mm    
Historical Graphs
 
 
Tabular Data for January 1, 2018
Time Temperature Dew Point Pressure Wind Wind Speed Wind Gust Humidity Rainfall Rate (Hourly) solar
00:00 -19.3 °C -21.3 °C 1029 hPa Calm     84% 0 mm 0 W/m2
00:06 -19.2 °C -21.3 °C 1029 hPa Calm     83% 0 mm 0 W/m2
00:12 -19 °C -21 °C 1029 hPa Calm     84% 0 mm 0 W/m2
00:18 -18.8 °C -20.9 °C 1029 hPa Calm     84% 0 mm 0 W/m2
00:24 -18.7 °C -20.8 °C 1029 hPa Calm     84% 0 mm 0 W/m2
00:30 -18.7 °C -20.7 °C 1029 hPa Calm     84% 0 mm 0 W/m2
00:36 -18.6 °C -20.6 °C 1029 hPa Calm     84% 0 mm 0 W/m2
00:42 -18.3 °C -20.4 °C 1029 hPa Calm     84% 0 mm 0 W/m2
00:50 -18.2 °C -20.3 °C 1029 hPa Calm     84% 0 mm 0 W/m2
00:56 -18.2 °C -20.3 °C 1029 hPa Calm     84% 0 mm 0 W/m2
01:02 -18.2 °C -20.3 °C 1029 hPa Calm     84% 0 mm 0 W/m2
01:08 -18.2 °C -20.3 °C 1029 hPa Calm     84% 0 mm 0 W/m2
01:12 -18.2 °C -20.2 °C 1029 hPa Calm     84% 0 mm 0 W/m2
01:18 -18.2 °C -20.2 °C 1029 hPa Calm     84% 0 mm 0 W/m2
01:22 -18.2 °C -20.2 °C 1029 hPa Calm     84% 0 mm 0 W/m2
01:28 -18.1 °C -20.2 °C 1029 hPa Calm     84% 0 mm 0 W/m2
01:34 -18.1 °C -20.1 °C 1029 hPa Calm     84% 0 mm 0 W/m2
01:40 -18 °C -20.1 °C 1029 hPa Calm     84% 0 mm 0 W/m2
01:46 -17.9 °C -20 °C 1029 hPa Calm     84% 0 mm 0 W/m2
01:52 -17.9 °C -19.9 °C 1029.3 hPa Calm   1.6 km/h 84% 0 mm 0 W/m2
02:00 -17.7 °C -19.8 °C 1029.3 hPa Calm     84% 0 mm 0 W/m2
02:06 -17.7 °C -19.8 °C 1029.3 hPa ENE 1.6 km/h 1.6 km/h 84% 0 mm 0 W/m2
02:12 -17.7 °C -19.9 °C 1029.3 hPa North 1.6 km/h 3.2 km/h 83% 0 mm 0 W/m2
02:18 -17.8 °C -19.9 °C 1029.3 hPa North 1.6 km/h 3.2 km/h 83% 0 mm 0 W/m2
02:24 -17.8 °C -20 °C 1029.7 hPa North 1.6 km/h 1.6 km/h 83% 0 mm 0 W/m2
02:30 -17.8 °C -20 °C 1029.7 hPa North 1.6 km/h 1.6 km/h 83% 0 mm 0 W/m2
02:36 -17.9 °C -20.1 °C 1029.7 hPa NNE 3.2 km/h 3.2 km/h 83% 0 mm 0 W/m2
02:42 -17.9 °C -20.1 °C 1029.7 hPa NNE 1.6 km/h 3.2 km/h 83% 0 mm 0 W/m2
02:44 -17.9 °C -20.1 °C 1029.7 hPa NNE 1.6 km/h 3.2 km/h 83% 0 mm 0 W/m2
02:50 -18.1 °C -20.4 °C 1029.7 hPa NNE 1.6 km/h 3.2 km/h 82% 0 mm 0 W/m2
02:56 -18.2 °C -20.5 °C 1029.7 hPa North 1.6 km/h 3.2 km/h 82% 0 mm 0 W/m2
03:02 -18.3 °C -20.7 °C 1029.7 hPa Calm   3.2 km/h 82% 0 mm 0 W/m2
03:08 -18.4 °C -20.8 °C 1029.7 hPa Calm   3.2 km/h 82% 0 mm 0 W/m2
03:14 -18.6 °C -21.1 °C 1029.3 hPa Calm     81% 0 mm 0 W/m2
03:22 -18.9 °C -21.3 °C 1029.3 hPa Calm     81% 0 mm 0 W/m2
03:28 -19.2 °C -21.7 °C 1029.3 hPa Calm     81% 0 mm 0 W/m2
03:30 -19.3 °C -21.8 °C 1029.3 hPa Calm     81% 0 mm 0 W/m2
03:36 -19.7 °C -22.1 °C 1029.3 hPa Calm     81% 0 mm 0 W/m2
03:42 -19.9 °C -22.4 °C 1029.3 hPa Calm     81% 0 mm 0 W/m2
03:46 -20.1 °C -22.6 °C 1029.3 hPa Calm     81% 0 mm 0 W/m2
03:52 -20.2 °C -22.7 °C 1029.3 hPa Calm     81% 0 mm 0 W/m2
03:58 -20.4 °C -22.8 °C 1029.3 hPa Calm     81% 0 mm 0 W/m2
04:04 -20.6 °C -22.9 °C 1029.3 hPa Calm     81% 0 mm 0 W/m2
04:10 -20.8 °C -23.2 °C 1029.3 hPa Calm     81% 0 mm 0 W/m2
04:16 -20.9 °C -23.3 °C 1029.3 hPa Calm     81% 0 mm 0 W/m2
04:22 -21.1 °C -23.5 °C 1029.3 hPa Calm     81% 0 mm 0 W/m2
04:28 -21.4 °C -23.8 °C 1029.3 hPa Calm     81% 0 mm 0 W/m2
04:34 -21.6 °C -24 °C 1029.3 hPa Calm     81% 0 mm 0 W/m2
04:40 -21.8 °C -24.2 °C 1029.3 hPa Calm     81% 0 mm 0 W/m2
04:44 -21.9 °C -24.3 °C 1029.3 hPa Calm     81% 0 mm 0 W/m2
04:50 -22.2 °C -24.6 °C 1029.3 hPa Calm     81% 0 mm 0 W/m2
04:52 -22.3 °C -24.7 °C 1029.3 hPa Calm     81% 0 mm 0 W/m2
04:58 -22.7 °C -25.1 °C 1029.3 hPa Calm     81% 0 mm 0 W/m2
05:04 -22.8 °C -25.2 °C 1029.7 hPa Calm     81% 0 mm 0 W/m2
05:10 -22.9 °C -25.3 °C 1029.7 hPa Calm     81% 0 mm 0 W/m2
05:16 -23.1 °C -25.4 °C 1029.7 hPa Calm     81% 0 mm 0 W/m2
05:22 -23.3 °C -25.6 °C 1029.7 hPa Calm     81% 0 mm 0 W/m2
05:28 -23.4 °C -25.8 °C 1029.3 hPa Calm     81% 0 mm 0 W/m2
05:34 -23.5 °C -25.8 °C 1029.3 hPa Calm     81% 0 mm 0 W/m2
05:40 -23.6 °C -25.9 °C 1029.3 hPa Calm     81% 0 mm 0 W/m2
05:46 -23.8 °C -26.1 °C 1029.7 hPa Calm     81% 0 mm 0 W/m2
05:52 -23.8 °C -26.2 °C 1029.7 hPa Calm     81% 0 mm 0 W/m2
05:58 -23.9 °C -26.3 °C 1029.7 hPa Calm     81% 0 mm 0 W/m2
06:04 -24.1 °C -26.4 °C 1029.7 hPa Calm     81% 0 mm 0 W/m2
06:10 -24.3 °C -26.6 °C 1030 hPa Calm     81% 0 mm 0 W/m2
06:16 -24.4 °C -26.8 °C 1030 hPa Calm     80% 0 mm 0 W/m2
06:22 -24.6 °C -26.9 °C 1030 hPa Calm     81% 0 mm 0 W/m2
06:28 -24.7 °C -27.2 °C 1030 hPa Calm     80% 0 mm 0 W/m2
06:34 -24.8 °C -27.3 °C 1030 hPa Calm     80% 0 mm 0 W/m2
06:40 -24.9 °C -27.4 °C 1030 hPa Calm     80% 0 mm 0 W/m2
06:46 -25 °C -27.4 °C 1029.7 hPa Calm     80% 0 mm 0 W/m2
06:52 -25.2 °C -27.6 °C 1029.7 hPa Calm     80% 0 mm 0 W/m2
06:58 -25.4 °C -27.8 °C 1029.7 hPa Calm     80% 0 mm 0 W/m2
07:04 -25.5 °C -27.9 °C 1030 hPa Calm     80% 0 mm 0 W/m2
07:12 -25.6 °C -28.1 °C 1030 hPa Calm     80% 0 mm 0 W/m2
07:14 -25.6 °C -28.1 °C 1030 hPa Calm     80% 0 mm 0 W/m2
07:20 -25.7 °C -28.1 °C 1030 hPa Calm     80% 0 mm 0 W/m2
07:24 -25.7 °C -28.2 °C 1030 hPa Calm     80% 0 mm 0 W/m2
07:30 -25.8 °C -28.3 °C 1030 hPa Calm     80% 0 mm 0 W/m2
07:36 -25.8 °C -28.3 °C 1030 hPa Calm     80% 0 mm 0 W/m2
07:42 -25.8 °C -28.3 °C 1030 hPa Calm     80% 0 mm 0 W/m2
07:48 -25.9 °C -28.3 °C 1030 hPa Calm     80% 0 mm 0 W/m2
07:54 -25.9 °C -28.4 °C 1030 hPa Calm     80% 0 mm 0 W/m2
08:00 -26 °C -28.4 °C 1030 hPa Calm     80% 0 mm 0 W/m2
08:04 -25.9 °C -28.4 °C 1030 hPa Calm     80% 0 mm 0 W/m2
08:10 -25.9 °C -28.4 °C 1030 hPa Calm     80% 0 mm 5 W/m2
08:16 -25.9 °C -28.3 °C 1030 hPa Calm     80% 0 mm 7 W/m2
08:22 -25.8 °C -28.2 °C 1030 hPa Calm     80% 0 mm 9 W/m2
08:28 -25.6 °C -28.1 °C 1030 hPa Calm     80% 0 mm 11 W/m2
08:36 -25.4 °C -27.8 °C 1030 hPa Calm     80% 0 mm 12 W/m2
08:42 -24.9 °C -27.4 °C 1030 hPa Calm     80% 0 mm 14 W/m2
08:48 -24.4 °C -26.8 °C 1030 hPa Calm     81% 0 mm 16 W/m2
08:54 -24 °C -26.3 °C 1030 hPa Calm     81% 0 mm 16 W/m2
09:00 -23.4 °C -25.8 °C 1030 hPa Calm     81% 0 mm 16 W/m2
09:06 -23 °C -25.3 °C 1030 hPa Calm     81% 0 mm 19 W/m2
09:12 -22.5 °C -24.9 °C 1030 hPa Calm     81% 0 mm 21 W/m2
09:18 -22 °C -24.4 °C 1030 hPa Calm     81% 0 mm 21 W/m2
09:24 -20.7 °C -23 °C 1030 hPa Calm     82% 0 mm 23 W/m2
09:30 -19.8 °C -22.1 °C 1030 hPa Calm     82% 0 mm 21 W/m2
09:36 -19.2 °C -21.7 °C 1030 hPa Calm     81% 0 mm 21 W/m2
09:42 -18.7 °C -21.3 °C 1030 hPa Calm     80% 0 mm 23 W/m2
09:48 -17.8 °C -20.6 °C 1030 hPa Calm     79% 0 mm 23 W/m2
09:54 -17.7 °C -20.6 °C 1030 hPa Calm   1.6 km/h 78% 0 mm 25 W/m2
10:00 -17.8 °C -20.9 °C 1030 hPa Calm   1.6 km/h 77% 0 mm 26 W/m2
10:06 -17.7 °C -20.9 °C 1030 hPa Calm   1.6 km/h 76% 0 mm 26 W/m2
10:10 -17.4 °C -20.6 °C 1030 hPa Calm   1.6 km/h 76% 0 mm 28 W/m2
10:16 -17.4 °C -20.7 °C 1030 hPa SSE 1.6 km/h 3.2 km/h 76% 0 mm 30 W/m2
10:22 -16.9 °C -20 °C 1030 hPa Calm   1.6 km/h 77% 0 mm 33 W/m2
10:26 -16.5 °C -19.7 °C 1030 hPa Calm   1.6 km/h 76% 0 mm 33 W/m2
10:32 -16.1 °C -19.4 °C 1029.7 hPa Calm     76% 0 mm 37 W/m2
10:38 -16 °C -19.4 °C 1029.7 hPa Calm     75% 0 mm 40 W/m2
10:44 -15.3 °C -18.8 °C 1029.7 hPa Calm     75% 0 mm 44 W/m2
10:50 -15.2 °C -18.9 °C 1029.3 hPa Calm   1.6 km/h 73% 0 mm 47 W/m2
10:56 -14.9 °C -18.4 °C 1029.3 hPa Calm   1.6 km/h 75% 0 mm 53 W/m2
11:02 -14.9 °C -18.5 °C 1029.3 hPa Calm     74% 0 mm 56 W/m2
11:08 -14.1 °C -17.7 °C 1029 hPa Calm     74% 0 mm 60 W/m2
11:14 -13.6 °C -17.6 °C 1029 hPa Calm     72% 0 mm 63 W/m2
11:20 -13.9 °C -17.8 °C 1029 hPa Calm     72% 0 mm 67 W/m2
11:26 -13.4 °C -17.3 °C 1028.7 hPa Calm     73% 0 mm 72 W/m2
11:32 -13.4 °C -17.6 °C 1028.3 hPa Calm     71% 0 mm 76 W/m2
11:38 -13.7 °C -17.4 °C 1028.3 hPa Calm     73% 0 mm 77 W/m2
11:46 -12.8 °C -16.7 °C 1028.3 hPa Calm   3.2 km/h 73% 0 mm 83 W/m2
11:50 -12.2 °C -16.3 °C 1028 hPa Calm     71% 0 mm 86 W/m2
11:56 -12.4 °C -16.8 °C 1028 hPa Calm   3.2 km/h 70% 0 mm 90 W/m2
11:58 -12.3 °C -16.6 °C 1028 hPa Calm   3.2 km/h 70% 0 mm 91 W/m2
12:04 -12 °C -16.4 °C 1028 hPa Calm   1.6 km/h 70% 0 mm 95 W/m2
12:10 -11.9 °C -16.4 °C 1027.7 hPa Calm   4.8 km/h 69% 0 mm 98 W/m2
12:16 -12 °C -16.4 °C 1027.7 hPa Calm   4.8 km/h 70% 0 mm 102 W/m2
12:22 -11.8 °C -16.9 °C 1027.3 hPa NNE 1.6 km/h 6.4 km/h 66% 0 mm 104 W/m2
12:28 -13.3 °C -18 °C 1027.3 hPa NE 3.2 km/h 6.4 km/h 68% 0 mm 107 W/m2
12:34 -13.4 °C -17.8 °C 1027.3 hPa ENE 3.2 km/h 4.8 km/h 70% 0 mm 113 W/m2
12:40 -13.2 °C -17.7 °C 1027 hPa NE 3.2 km/h 3.2 km/h 69% 0 mm 114 W/m2
12:46 -12.7 °C -17.2 °C 1027 hPa NE 1.6 km/h 3.2 km/h 69% 0 mm 118 W/m2
12:52 -11.8 °C -16.6 °C 1026.6 hPa NE 1.6 km/h 3.2 km/h 68% 0 mm 137 W/m2
12:58 -11.2 °C -16.3 °C 1026.6 hPa South 3.2 km/h 6.4 km/h 66% 0 mm 153 W/m2
13:00 -11.2 °C -16.3 °C 1026.6 hPa South 3.2 km/h 3.2 km/h 66% 0 mm 158 W/m2
13:06 -12.2 °C -17.4 °C 1026.6 hPa ENE 3.2 km/h 4.8 km/h 65% 0 mm 127 W/m2
13:12 -12.4 °C -17.3 °C 1026.3 hPa ENE 3.2 km/h 3.2 km/h 67% 0 mm 123 W/m2
13:18 -12.2 °C -16.9 °C 1026.3 hPa NE 3.2 km/h 6.4 km/h 68% 0 mm 113 W/m2
13:24 -12.1 °C -17.1 °C 1026.3 hPa NNE 1.6 km/h 4.8 km/h 66% 0 mm 114 W/m2
13:30 -12.3 °C -17.3 °C 1026.3 hPa North 3.2 km/h 6.4 km/h 66% 0 mm 81 W/m2
13:36 -11.8 °C -16.5 °C 1026.3 hPa SSE 4.8 km/h 6.4 km/h 68% 0 mm 111 W/m2
13:42 -11.6 °C -16.8 °C 1026.3 hPa NE 3.2 km/h 4.8 km/h 65% 0 mm 67 W/m2
13:44 -11.7 °C -17 °C 1026 hPa NE 3.2 km/h 4.8 km/h 65% 0 mm 83 W/m2
13:50 -11.8 °C -16.9 °C 1026 hPa NE 1.6 km/h 4.8 km/h 66% 0 mm 132 W/m2
13:56 -10.8 °C -15.9 °C 1025.6 hPa WSW 1.6 km/h 8 km/h 66% 0 mm 72 W/m2
14:02 -10.7 °C -16.2 °C 1025.6 hPa South 4.8 km/h 8 km/h 64% 0 mm 169 W/m2
14:08 -10.4 °C -15.9 °C 1025.6 hPa South 6.4 km/h 14.5 km/h 64% 0 mm 144 W/m2
14:14 -10.3 °C -16 °C 1025.6 hPa SSW 6.4 km/h 11.3 km/h 63% 0 mm 178 W/m2
14:20 -10.2 °C -16.3 °C 1025.6 hPa SW 6.4 km/h 6.4 km/h 61% 0 mm 125 W/m2
14:26 -10.5 °C -16.4 °C 1025.6 hPa West 6.4 km/h 8 km/h 62% 0 mm 33 W/m2
14:32 -10.6 °C -16.3 °C 1025.3 hPa WSW 4.8 km/h 6.4 km/h 63% 0 mm 46 W/m2
14:38 -10.6 °C -16.1 °C 1025.3 hPa SW 4.8 km/h 6.4 km/h 64% 0 mm 76 W/m2
14:46 -10.4 °C -16.2 °C 1025.3 hPa SW 4.8 km/h 12.9 km/h 63% 0 mm 60 W/m2
14:54 -10.4 °C -15.9 °C 1025.3 hPa SW 4.8 km/h 8 km/h 64% 0 mm 60 W/m2
15:00 -10.4 °C -16.1 °C 1024.9 hPa SSW 6.4 km/h 6.4 km/h 63% 0 mm 111 W/m2
15:06 -10 °C -15.9 °C 1024.9 hPa SW 6.4 km/h 8 km/h 62% 0 mm 139 W/m2
15:12 -9.9 °C -15.8 °C 1024.9 hPa South 4.8 km/h 8 km/h 62% 0 mm 81 W/m2
15:18 -9.9 °C -15.8 °C 1024.9 hPa SSW 6.4 km/h 8 km/h 62% 0 mm 74 W/m2
15:24 -9.8 °C -15.9 °C 1024.9 hPa SW 6.4 km/h 6.4 km/h 61% 0 mm 93 W/m2
15:30 -9.8 °C -16.2 °C 1024.6 hPa SW 6.4 km/h 9.7 km/h 60% 0 mm 116 W/m2
15:36 -9.7 °C -16.1 °C 1024.6 hPa SSW 6.4 km/h 9.7 km/h 60% 0 mm 88 W/m2
15:42 -9.8 °C -16.2 °C 1024.6 hPa SW 4.8 km/h 8 km/h 60% 0 mm 74 W/m2
15:48 -9.9 °C -16.1 °C 1024.6 hPa SW 6.4 km/h 8 km/h 61% 0 mm 32 W/m2
15:54 -10 °C -15.9 °C 1024.6 hPa South 4.8 km/h 6.4 km/h 62% 0 mm 58 W/m2
16:00 -10 °C -16.1 °C 1024.6 hPa SSW 3.2 km/h 3.2 km/h 61% 0 mm 37 W/m2
16:06 -10 °C -16.1 °C 1024.6 hPa SSW 3.2 km/h 6.4 km/h 61% 0 mm 25 W/m2
16:12 -10.1 °C -16.3 °C 1024.6 hPa SW 3.2 km/h 6.4 km/h 60% 0 mm 18 W/m2
16:14 -10.1 °C -16.3 °C 1024.6 hPa SW 3.2 km/h 6.4 km/h 60% 0 mm 14 W/m2
16:20 -10.2 °C -16.7 °C 1024.6 hPa WSW 3.2 km/h 6.4 km/h 59% 0 mm 9 W/m2
16:26 -10.2 °C -16.7 °C 1024.6 hPa SW 4.8 km/h 6.4 km/h 59% 0 mm 7 W/m2
16:32 -10.2 °C -16.7 °C 1024.3 hPa SW 3.2 km/h 8 km/h 59% 0 mm 5 W/m2
16:36 -10.2 °C -16.7 °C 1024.3 hPa SSW 3.2 km/h 8 km/h 59% 0 mm 0 W/m2
16:42 -10.3 °C -16.8 °C 1024.3 hPa SSW 3.2 km/h 6.4 km/h 59% 0 mm 0 W/m2
16:48 -10.2 °C -16.7 °C 1024.3 hPa WSW 3.2 km/h 6.4 km/h 59% 0 mm 0 W/m2
16:50 -10.2 °C -16.7 °C 1024.3 hPa WSW 3.2 km/h 4.8 km/h 59% 0 mm 0 W/m2
16:56 -10.2 °C -16.7 °C 1024.3 hPa WSW 3.2 km/h 4.8 km/h 59% 0 mm 0 W/m2
17:02 -10.1 °C -16.6 °C 1024.3 hPa SW 3.2 km/h 4.8 km/h 59% 0 mm 0 W/m2
17:08 -10.1 °C -16.8 °C 1024.3 hPa SW 4.8 km/h 16.1 km/h 58% 0 mm 0 W/m2
17:10 -10 °C -16.7 °C 1024.3 hPa SW 4.8 km/h 4.8 km/h 58% 0 mm 0 W/m2
17:16 -9.9 °C -16.7 °C 1024.3 hPa West 6.4 km/h 9.7 km/h 58% 0 mm 0 W/m2
17:22 -9.9 °C -16.4 °C 1024.3 hPa WSW 4.8 km/h 11.3 km/h 59% 0 mm 0 W/m2
17:28 -9.9 °C -16.4 °C 1024.3 hPa SW 4.8 km/h 11.3 km/h 59% 0 mm 0 W/m2
17:34 -9.9 °C -16.4 °C 1024.3 hPa WSW 6.4 km/h 9.7 km/h 59% 0 mm 0 W/m2
17:40 -9.9 °C -16.2 °C 1024.3 hPa WNW 8 km/h 8 km/h 60% 0 mm 0 W/m2
17:46 -9.9 °C -16.2 °C 1024.3 hPa WSW 8 km/h 20.9 km/h 60% 0 mm 0 W/m2
17:52 -9.9 °C -16 °C 1023.9 hPa SW 9.7 km/h 9.7 km/h 61% 0 mm 0 W/m2
17:58 -9.9 °C -16.1 °C 1023.9 hPa West 6.4 km/h 9.7 km/h 61% 0 mm 0 W/m2
18:04 -9.9 °C -15.8 °C 1023.9 hPa WSW 4.8 km/h 6.4 km/h 62% 0 mm 0 W/m2
18:10 -9.9 °C -15.7 °C 1023.9 hPa SW 4.8 km/h 4.8 km/h 63% 0 mm 0 W/m2
18:14 -9.9 °C -15.7 °C 1023.9 hPa West 6.4 km/h 6.4 km/h 63% 0 mm 0 W/m2
18:20 -9.9 °C -15.5 °C 1023.9 hPa WSW 8 km/h 8 km/h 64% 0 mm 0 W/m2
18:26 -9.9 °C -15.5 °C 1024.3 hPa WSW 8 km/h 9.7 km/h 64% 0 mm 0 W/m2
18:32 -9.9 °C -15.3 °C 1023.9 hPa SW 8 km/h 12.9 km/h 65% 0 mm 0 W/m2
18:34 -9.9 °C -15.3 °C 1023.9 hPa West 8 km/h 12.9 km/h 65% 0 mm 0 W/m2
18:40 -10 °C -15.2 °C 1023.9 hPa SW 8 km/h 17.7 km/h 66% 0 mm 0 W/m2
18:46 -10 °C -14.9 °C 1023.9 hPa West 8 km/h 17.7 km/h 67% 0 mm 0 W/m2
18:52 -10 °C -14.9 °C 1023.9 hPa West 8 km/h 9.7 km/h 67% 0 mm 0 W/m2
18:58 -10.1 °C -14.7 °C 1023.9 hPa WNW 8 km/h 9.7 km/h 69% 0 mm 0 W/m2
19:04 -10.2 °C -14.4 °C 1023.9 hPa SSW 8 km/h 12.9 km/h 71% 0 mm 0 W/m2
19:10 -10.2 °C -14.3 °C 1023.9 hPa SW 8 km/h 8 km/h 72% 0 mm 0 W/m2
19:16 -10.2 °C -14.2 °C 1023.9 hPa West 8 km/h 9.7 km/h 73% 0 mm 0 W/m2
19:20 -10.3 °C -13.9 °C 1023.9 hPa West 8 km/h 8 km/h 75% 0 mm 0 W/m2
19:26 -10.5 °C -13.8 °C 1023.9 hPa West 8 km/h 12.9 km/h 77% 0 mm 0 W/m2
19:32 -10.6 °C -13.4 °C 1023.9 hPa SW 9.7 km/h 14.5 km/h 80% 0 mm 0 W/m2
19:40 -10.7 °C -13.2 °C 1023.9 hPa WSW 9.7 km/h 14.5 km/h 82% 0 mm 0 W/m2
19:46 -10.6 °C -12.9 °C 1023.9 hPa West 8 km/h 14.5 km/h 83% 0 mm 0 W/m2
19:52 -10.6 °C -12.9 °C 1023.9 hPa WNW 8 km/h 8 km/h 83% 0 mm 0 W/m2
19:58 -10.6 °C -12.8 °C 1023.9 hPa West 8 km/h 9.7 km/h 84% 0 mm 0 W/m2
20:04 -10.6 °C -12.8 °C 1024.3 hPa WNW 6.4 km/h 8 km/h 84% 0 mm 0 W/m2
20:10 -10.6 °C -12.7 °C 1024.3 hPa WNW 8 km/h 8 km/h 85% 0 mm 0 W/m2
20:16 -10.6 °C -12.7 °C 1024.6 hPa WSW 8 km/h 8 km/h 85% 0 mm 0 W/m2
20:22 -10.6 °C -12.5 °C 1024.6 hPa West 6.4 km/h 9.7 km/h 86% 0 mm 0 W/m2
20:28 -10.6 °C -12.5 °C 1024.6 hPa WNW 6.4 km/h 9.7 km/h 86% 0 mm 0 W/m2
20:34 -10.6 °C -12.5 °C 1024.6 hPa WNW 4.8 km/h 6.4 km/h 86% 0 mm 0 W/m2
20:40 -10.7 °C -12.6 °C 1024.6 hPa West 4.8 km/h 6.4 km/h 86% 0 mm 0 W/m2
20:46 -10.7 °C -12.4 °C 1024.6 hPa West 4.8 km/h 8 km/h 87% 0 mm 0 W/m2
20:52 -10.7 °C -12.4 °C 1024.9 hPa West 6.4 km/h 6.4 km/h 87% 0 mm 0 W/m2
20:58 -10.7 °C -12.4 °C 1024.9 hPa West 6.4 km/h 6.4 km/h 87% 0 mm 0 W/m2
21:04 -10.7 °C -12.4 °C 1024.9 hPa WNW 4.8 km/h 4.8 km/h 87% 0 mm 0 W/m2
21:10 -10.7 °C -12.4 °C 1024.9 hPa WNW 4.8 km/h 4.8 km/h 87% 0 mm 0 W/m2
21:16 -10.7 °C -12.4 °C 1024.9 hPa WNW 6.4 km/h 6.4 km/h 87% 0 mm 0 W/m2
21:20 -10.7 °C -12.4 °C 1024.9 hPa NW 6.4 km/h 6.4 km/h 87% 0 mm 0 W/m2
21:26 -10.7 °C -12.4 °C 1024.9 hPa WNW 6.4 km/h 9.7 km/h 87% 0 mm 0 W/m2
21:32 -10.8 °C -12.5 °C 1025.3 hPa WNW 8 km/h 9.7 km/h 87% 0 mm 0 W/m2
21:38 -11 °C -12.7 °C 1025.3 hPa NW 8 km/h 17.7 km/h 87% 0 mm 0 W/m2
21:44 -11.2 °C -12.9 °C 1025.3 hPa NW 8 km/h 11.3 km/h 87% 0 mm 0 W/m2
21:46 -11.2 °C -12.9 °C 1025.3 hPa NNW 8 km/h 11.3 km/h 87% 0 mm 0 W/m2
21:52 -11.3 °C -13.1 °C 1025.6 hPa WNW 6.4 km/h 8 km/h 87% 0 mm 0 W/m2
21:58 -11.6 °C -13.3 °C 1025.6 hPa WNW 8 km/h 12.9 km/h 87% 0 mm 0 W/m2
22:04 -11.8 °C -13.6 °C 1025.6 hPa NNW 9.7 km/h 16.1 km/h 87% 0 mm 0 W/m2
22:22 -12.2 °C -14.1 °C 1026 hPa NW 8 km/h 9.7 km/h 86% 0 mm 0 W/m2
22:28 -12.3 °C -14.2 °C 1026 hPa West 6.4 km/h 11.3 km/h 86% 0 mm 0 W/m2
22:34 -12.4 °C -14.2 °C 1026 hPa NW 8 km/h 11.3 km/h 86% 0 mm 0 W/m2
22:40 -12.4 °C -14.3 °C 1026 hPa WNW 8 km/h 8 km/h 86% 0 mm 0 W/m2
22:46 -12.6 °C -14.4 °C 1026.3 hPa WNW 8 km/h 8 km/h 86% 0 mm 0 W/m2
22:52 -12.7 °C -14.5 °C 1026.3 hPa NNW 9.7 km/h 12.9 km/h 86% 0 mm 0 W/m2
22:58 -12.7 °C -14.5 °C 1026.3 hPa WNW 8 km/h 12.9 km/h 86% 0 mm 0 W/m2
23:02 -12.7 °C -14.6 °C 1026.6 hPa WNW 6.4 km/h 9.7 km/h 86% 0 mm 0 W/m2
23:08 -12.8 °C -14.8 °C 1026.6 hPa WNW 6.4 km/h 9.7 km/h 85% 0 mm 0 W/m2
23:14 -12.8 °C -14.8 °C 1026.6 hPa NW 6.4 km/h 9.7 km/h 85% 0 mm 0 W/m2
23:20 -12.9 °C -14.9 °C 1026.6 hPa West 6.4 km/h 6.4 km/h 85% 0 mm 0 W/m2
23:24 -13.1 °C -15.2 °C 1026.6 hPa NW 6.4 km/h 6.4 km/h 84% 0 mm 0 W/m2
23:30 -13.1 °C -15.2 °C 1026.6 hPa WNW 6.4 km/h 6.4 km/h 84% 0 mm 0 W/m2
23:36 -13.2 °C -15.3 °C 1026.6 hPa WNW 6.4 km/h 9.7 km/h 84% 0 mm 0 W/m2
23:42 -13.2 °C -15.3 °C 1026.6 hPa NW 4.8 km/h 8 km/h 84% 0 mm 0 W/m2
23:48 -13.3 °C -15.4 °C 1027 hPa WNW 4.8 km/h 8 km/h 84% 0 mm 0 W/m2
23:54 -13.4 °C -15.5 °C 1027 hPa NW 4.8 km/h 4.8 km/h 84% 0 mm 0 W/m2
Country Meadow, Clay, NY, USA
Compliments of Weather Underground - 2 mb